Time;durP1;ratioP1;P1;durP2;ratioP2;P2;SDS_P1;SDS_P2;PMS_P1;PMS_P2;Temp;Humidity;BMP_temperature;BMP_pressure;BME280_temperature;BME280_humidity;BME280_pressure;Samples;Min_cycle;Max_cycle;Signal;HPM_P1;HPM_P2
2023/04/29 00:00:17;;;;;;;6.78;4.60;;;;;;;;;;4951600;28;20030;-65
2023/04/29 00:02:43;;;;;;;7.13;4.88;;;;;;;;;;4971946;28;20050;-65
2023/04/29 00:05:08;;;;;;;8.43;4.60;;;;;;;;;;4969383;28;20038;-66
2023/04/29 00:07:35;;;;;;;7.00;4.75;;;;;;;;;;4972953;28;20049;-65
2023/04/29 00:10:00;;;;;;;7.43;4.72;;;;;;;;;;4968691;28;20663;-66
2023/04/29 00:12:27;;;;;;;6.22;4.38;;;;;;;;;;4967779;28;20081;-66
2023/04/29 00:14:52;;;;;;;6.75;4.88;;;;;;;;;;4947194;28;20031;-67
2023/04/29 00:17:18;;;;;;;6.65;4.95;;;;;;;;;;4972548;28;20112;-66
2023/04/29 00:19:44;;;;;;;8.50;5.68;;;;;;;;;;4971968;28;20064;-67
2023/04/29 00:22:09;;;;;;;10.30;6.88;;;;;;;;;;4976049;28;20049;-66
2023/04/29 00:24:35;;;;;;;9.00;6.30;;;;;;;;;;4970994;28;20041;-65
2023/04/29 00:27:01;;;;;;;9.20;6.47;;;;;;;;;;4978352;28;20068;-67
2023/04/29 00:29:27;;;;;;;10.02;6.47;;;;;;;;;;4953567;28;20097;-67
2023/04/29 00:31:52;;;;;;;8.70;5.63;;;;;;;;;;4969794;28;20042;-66
2023/04/29 00:34:18;;;;;;;10.35;6.40;;;;;;;;;;4969804;28;20539;-66
2023/04/29 00:36:43;;;;;;;10.45;6.32;;;;;;;;;;4977163;28;20066;-65
2023/04/29 00:39:08;;;;;;;9.95;5.97;;;;;;;;;;4963246;28;20142;-67
2023/04/29 00:41:34;;;;;;;10.13;6.25;;;;;;;;;;4965958;28;20069;-66
2023/04/29 00:44:00;;;;;;;10.77;7.20;;;;;;;;;;4950088;28;20047;-65
2023/04/29 00:46:26;;;;;;;11.05;7.05;;;;;;;;;;4968672;28;20048;-66
2023/04/29 00:48:51;;;;;;;11.40;6.90;;;;;;;;;;4976491;28;20535;-66
2023/04/29 00:51:17;;;;;;;11.07;6.90;;;;;;;;;;4966861;28;20077;-65
2023/04/29 00:53:43;;;;;;;11.40;7.55;;;;;;;;;;4967594;28;20034;-68
2023/04/29 00:56:09;;;;;;;11.55;7.40;;;;;;;;;;4960615;28;20045;-68
2023/04/29 00:58:35;;;;;;;12.98;8.35;;;;;;;;;;4940460;28;20055;-66
2023/04/29 01:01:02;;;;;;;12.85;7.90;;;;;;;;;;4970555;28;20045;-67
2023/04/29 01:03:29;;;;;;;12.07;7.25;;;;;;;;;;4970629;28;20117;-66
2023/04/29 01:06:22;;;;;;;11.15;7.20;;;;;;;;;;4967257;28;20084;-68
2023/04/29 01:09:03;;;;;;;13.73;9.05;;;;;;;;;;4949307;28;20050;-66
2023/04/29 01:11:34;;;;;;;13.05;8.18;;;;;;;;;;4966722;28;20045;-66
2023/04/29 01:14:04;;;;;;;15.20;8.52;;;;;;;;;;4966734;28;20042;-70
2023/04/29 01:16:36;;;;;;;9.98;6.07;;;;;;;;;;4968342;28;20030;-67
2023/04/29 01:19:15;;;;;;;5.05;3.17;;;;;;;;;;4951811;28;20030;-69
2023/04/29 01:21:50;;;;;;;12.57;8.43;;;;;;;;;;4976300;28;20046;-66
2023/04/29 01:24:16;;;;;;;11.48;7.35;;;;;;;;;;4972336;28;20066;-68
2023/04/29 01:26:51;;;;;;;12.05;7.90;;;;;;;;;;4975175;28;20072;-69
2023/04/29 01:29:34;;;;;;;12.43;7.40;;;;;;;;;;4963342;28;20046;-71
2023/04/29 01:32:08;;;;;;;13.40;7.65;;;;;;;;;;4940932;28;20066;-70
2023/04/29 01:34:59;;;;;;;11.90;6.90;;;;;;;;;;4959773;28;20050;-67
2023/04/29 01:37:46;;;;;;;13.52;7.65;;;;;;;;;;4968926;28;20498;-66
2023/04/29 01:40:23;;;;;;;11.02;6.70;;;;;;;;;;4930559;28;20222;-68
2023/04/29 01:43:00;;;;;;;11.55;7.60;;;;;;;;;;4966844;28;20045;-68
2023/04/29 01:45:27;;;;;;;9.02;5.88;;;;;;;;;;4977321;28;20082;-66
2023/04/29 01:47:57;;;;;;;9.45;5.68;;;;;;;;;;4968148;28;20049;-67
2023/04/29 01:50:23;;;;;;;9.40;5.72;;;;;;;;;;4947142;28;20041;-67
2023/04/29 01:52:48;;;;;;;9.82;5.40;;;;;;;;;;4966652;28;20403;-64
2023/04/29 01:55:13;;;;;;;11.55;5.90;;;;;;;;;;4972242;28;20038;-69
2023/04/29 01:57:39;;;;;;;7.18;4.70;;;;;;;;;;4968791;28;20045;-68
2023/04/29 02:00:05;;;;;;;8.18;5.05;;;;;;;;;;4976273;28;20600;-67
2023/04/29 02:02:30;;;;;;;9.45;5.75;;;;;;;;;;4974043;28;20065;-68
2023/04/29 02:04:55;;;;;;;8.35;5.40;;;;;;;;;;4947201;28;20061;-67
2023/04/29 02:07:21;;;;;;;10.95;6.50;;;;;;;;;;4973811;28;20042;-67
2023/04/29 02:09:46;;;;;;;13.05;5.97;;;;;;;;;;4966971;28;20733;-70
2023/04/29 02:12:12;;;;;;;11.18;5.90;;;;;;;;;;4966870;28;20038;-68
2023/04/29 02:14:38;;;;;;;9.60;5.70;;;;;;;;;;4965409;28;20043;-67
2023/04/29 02:17:03;;;;;;;9.20;6.00;;;;;;;;;;4967383;28;20038;-68
2023/04/29 02:19:29;;;;;;;8.57;5.60;;;;;;;;;;4953127;28;20030;-68
2023/04/29 02:21:54;;;;;;;7.90;5.13;;;;;;;;;;4970479;28;20454;-66
2023/04/29 02:24:19;;;;;;;10.02;6.13;;;;;;;;;;4976008;28;20069;-67
2023/04/29 02:26:45;;;;;;;9.68;6.13;;;;;;;;;;4966060;28;20057;-67
2023/04/29 02:29:10;;;;;;;8.90;5.50;;;;;;;;;;4973467;28;20146;-70
2023/04/29 02:31:36;;;;;;;10.05;6.88;;;;;;;;;;4975824;28;20430;-69
2023/04/29 02:34:01;;;;;;;9.88;5.65;;;;;;;;;;4948831;28;20116;-67
2023/04/29 02:36:27;;;;;;;10.25;6.03;;;;;;;;;;4965726;28;20159;-65
2023/04/29 02:38:54;;;;;;;8.63;5.82;;;;;;;;;;4972358;28;20035;-68
2023/04/29 02:41:20;;;;;;;9.48;5.85;;;;;;;;;;4970455;28;20042;-67
2023/04/29 02:43:45;;;;;;;10.43;6.72;;;;;;;;;;4971166;28;20034;-68
2023/04/29 02:46:11;;;;;;;8.98;5.55;;;;;;;;;;4943981;28;20109;-69
2023/04/29 02:48:36;;;;;;;12.30;6.53;;;;;;;;;;4956583;28;20756;-67
2023/04/29 02:51:02;;;;;;;10.57;6.50;;;;;;;;;;4969835;28;20030;-69
2023/04/29 02:53:27;;;;;;;9.93;6.07;;;;;;;;;;4972579;28;20073;-66
2023/04/29 02:55:53;;;;;;;9.73;6.22;;;;;;;;;;4970338;28;20042;-68
2023/04/29 02:58:18;;;;;;;9.70;6.25;;;;;;;;;;4968898;28;20046;-67
2023/04/29 03:00:43;;;;;;;10.45;6.75;;;;;;;;;;4968577;28;20465;-67
2023/04/29 03:03:09;;;;;;;10.13;6.53;;;;;;;;;;4962919;28;20050;-68
2023/04/29 03:05:35;;;;;;;11.20;5.85;;;;;;;;;;4961572;28;20621;-67
2023/04/29 03:08:01;;;;;;;10.05;6.00;;;;;;;;;;4970138;28;20121;-69
2023/04/29 03:10:26;;;;;;;9.43;6.13;;;;;;;;;;4974946;28;20141;-66
2023/04/29 03:12:52;;;;;;;13.90;5.60;;;;;;;;;;4978624;28;20121;-69
2023/04/29 03:15:19;;;;;;;10.07;6.15;;;;;;;;;;4951392;28;20093;-68
2023/04/29 03:17:45;;;;;;;10.27;6.40;;;;;;;;;;4971530;28;20755;-69
2023/04/29 03:20:11;;;;;;;10.32;5.57;;;;;;;;;;4968739;28;20126;-69
2023/04/29 03:22:36;;;;;;;9.82;6.00;;;;;;;;;;4968612;28;20129;-67
2023/04/29 03:25:02;;;;;;;8.20;5.22;;;;;;;;;;4962328;28;20073;-67
2023/04/29 03:27:27;;;;;;;8.88;5.70;;;;;;;;;;4970964;28;20053;-67
2023/04/29 03:29:53;;;;;;;9.20;5.82;;;;;;;;;;4954923;28;20080;-67
2023/04/29 03:32:18;;;;;;;9.82;6.50;;;;;;;;;;4976876;28;20041;-67
2023/04/29 03:34:43;;;;;;;9.98;5.40;;;;;;;;;;4976756;28;20550;-68
2023/04/29 03:37:09;;;;;;;8.73;5.80;;;;;;;;;;4974701;28;20038;-69
2023/04/29 03:39:34;;;;;;;8.82;5.53;;;;;;;;;;4972835;28;20033;-67
2023/04/29 03:42:00;;;;;;;9.38;5.57;;;;;;;;;;4968078;28;20125;-67
2023/04/29 03:44:26;;;;;;;9.88;6.15;;;;;;;;;;4955281;28;20522;-66
2023/04/29 03:46:51;;;;;;;8.88;5.20;;;;;;;;;;4973454;28;20042;-67
2023/04/29 03:49:16;;;;;;;8.98;5.50;;;;;;;;;;4955579;28;20039;-67
2023/04/29 03:51:44;;;;;;;8.50;5.53;;;;;;;;;;4971531;28;20102;-67
2023/04/29 03:54:10;;;;;;;10.70;6.30;;;;;;;;;;4969209;28;20042;-68
2023/04/29 03:56:35;;;;;;;8.65;5.78;;;;;;;;;;4961432;28;20486;-66
2023/04/29 03:59:01;;;;;;;10.77;6.45;;;;;;;;;;4960847;28;20051;-68
2023/04/29 04:01:26;;;;;;;9.50;6.03;;;;;;;;;;4968520;28;20125;-66
2023/04/29 04:03:52;;;;;;;11.15;6.75;;;;;;;;;;4972296;28;20108;-67
2023/04/29 04:06:17;;;;;;;8.77;5.68;;;;;;;;;;4971218;28;20045;-66
2023/04/29 04:08:42;;;;;;;8.35;5.43;;;;;;;;;;4972155;28;20038;-68
2023/04/29 04:11:08;;;;;;;11.48;6.55;;;;;;;;;;4960524;28;20042;-67
2023/04/29 04:13:34;;;;;;;9.13;5.07;;;;;;;;;;4960490;28;20845;-66
2023/04/29 04:15:59;;;;;;;8.52;4.85;;;;;;;;;;4970233;28;20046;-68
2023/04/29 04:18:25;;;;;;;7.72;4.70;;;;;;;;;;4980330;28;20723;-66
2023/04/29 04:20:50;;;;;;;8.73;5.05;;;;;;;;;;4970563;28;20097;-66
2023/04/29 04:23:15;;;;;;;8.65;5.05;;;;;;;;;;4967567;28;20073;-67
2023/04/29 04:25:48;;;;;;;7.57;4.50;;;;;;;;;;4947780;28;20042;-66
2023/04/29 04:28:14;;;;;;;7.97;4.72;;;;;;;;;;4970537;28;20058;-67
2023/04/29 04:30:40;;;;;;;7.28;4.85;;;;;;;;;;4978906;28;20053;-70
2023/04/29 04:33:06;;;;;;;7.68;4.57;;;;;;;;;;4974108;28;20042;-70
2023/04/29 04:35:31;;;;;;;7.63;4.70;;;;;;;;;;4969063;28;20042;-71
2023/04/29 04:37:57;;;;;;;8.07;4.63;;;;;;;;;;4973149;28;20041;-70
2023/04/29 04:40:23;;;;;;;8.20;4.32;;;;;;;;;;4955284;28;20034;-70
2023/04/29 04:42:48;;;;;;;8.13;4.78;;;;;;;;;;4974004;28;20034;-69
2023/04/29 04:45:13;;;;;;;7.75;3.90;;;;;;;;;;4952718;28;20096;-71
2023/04/29 04:47:40;;;;;;;6.30;3.60;;;;;;;;;;4969311;28;20046;-71
2023/04/29 04:50:06;;;;;;;6.03;4.00;;;;;;;;;;4974593;28;20071;-70
2023/04/29 04:52:31;;;;;;;4.95;3.05;;;;;;;;;;4966782;28;20149;-70
2023/04/29 04:54:57;;;;;;;5.60;3.58;;;;;;;;;;4961947;28;20046;-69
2023/04/29 04:57:22;;;;;;;6.35;3.83;;;;;;;;;;4978504;28;20038;-70
2023/04/29 04:59:48;;;;;;;5.28;3.38;;;;;;;;;;4977152;28;20052;-70
2023/04/29 05:02:13;;;;;;;6.03;3.22;;;;;;;;;;4974543;28;20076;-71
2023/04/29 05:04:38;;;;;;;6.13;3.72;;;;;;;;;;4973526;28;20435;-71
2023/04/29 05:07:04;;;;;;;4.68;3.05;;;;;;;;;;4964926;28;20125;-70
2023/04/29 05:09:30;;;;;;;7.00;3.78;;;;;;;;;;4963257;28;20038;-71
2023/04/29 05:11:55;;;;;;;6.55;3.85;;;;;;;;;;4963075;28;20038;-70
2023/04/29 05:14:20;;;;;;;6.40;4.00;;;;;;;;;;4977417;28;20065;-69
2023/04/29 05:16:46;;;;;;;6.22;4.07;;;;;;;;;;4972836;28;20046;-72
2023/04/29 05:19:11;;;;;;;8.32;4.18;;;;;;;;;;4972095;28;20046;-70
2023/04/29 05:21:37;;;;;;;7.72;4.53;;;;;;;;;;4955134;28;20819;-70
2023/04/29 05:24:02;;;;;;;6.53;4.35;;;;;;;;;;4961700;28;20065;-71
2023/04/29 05:26:28;;;;;;;6.43;4.28;;;;;;;;;;4968413;28;20580;-69
2023/04/29 05:28:54;;;;;;;7.57;4.68;;;;;;;;;;4970221;28;20042;-71
2023/04/29 05:31:20;;;;;;;8.98;4.93;;;;;;;;;;4971541;28;20132;-72
2023/04/29 05:33:45;;;;;;;8.40;5.30;;;;;;;;;;4969154;28;20046;-71
2023/04/29 05:36:11;;;;;;;8.70;5.15;;;;;;;;;;4956446;28;20088;-70
2023/04/29 05:38:37;;;;;;;9.52;5.70;;;;;;;;;;4959582;28;20049;-71
2023/04/29 05:41:02;;;;;;;9.40;5.57;;;;;;;;;;4968557;28;20046;-70
2023/04/29 05:43:28;;;;;;;9.05;4.88;;;;;;;;;;4959897;28;20092;-70
2023/04/29 05:45:54;;;;;;;10.77;5.97;;;;;;;;;;4952455;28;20052;-71
2023/04/29 05:48:20;;;;;;;6.10;3.50;;;;;;;;;;4965181;28;20133;-70
2023/04/29 05:50:47;;;;;;;7.78;5.05;;;;;;;;;;4948655;28;20049;-71
2023/04/29 05:53:12;;;;;;;8.85;5.03;;;;;;;;;;4966461;28;20049;-71
2023/04/29 05:55:38;;;;;;;9.05;4.95;;;;;;;;;;4968649;28;20585;-72
2023/04/29 05:58:04;;;;;;;8.27;5.15;;;;;;;;;;4966434;28;20070;-73
2023/04/29 06:00:30;;;;;;;8.90;5.22;;;;;;;;;;4968697;28;20043;-73
2023/04/29 06:02:56;;;;;;;6.80;3.90;;;;;;;;;;4964030;28;20042;-68
2023/04/29 06:05:21;;;;;;;7.88;4.47;;;;;;;;;;4943818;28;20048;-67
2023/04/29 06:07:47;;;;;;;7.30;4.32;;;;;;;;;;4972642;28;20105;-68
2023/04/29 06:10:12;;;;;;;7.10;4.05;;;;;;;;;;4967475;28;20391;-69
2023/04/29 06:12:38;;;;;;;6.13;4.25;;;;;;;;;;4966150;28;20096;-70
2023/04/29 06:15:03;;;;;;;7.22;4.72;;;;;;;;;;4967060;28;20133;-67
2023/04/29 06:17:29;;;;;;;8.07;4.35;;;;;;;;;;4969475;28;20050;-68
2023/04/29 06:19:55;;;;;;;7.38;4.10;;;;;;;;;;4953791;28;20050;-66
2023/04/29 06:22:20;;;;;;;8.18;4.90;;;;;;;;;;4965052;28;20138;-67
2023/04/29 06:24:48;;;;;;;7.60;4.10;;;;;;;;;;4966605;28;20069;-69
2023/04/29 06:27:14;;;;;;;7.60;4.55;;;;;;;;;;4952247;28;20050;-70
2023/04/29 06:29:40;;;;;;;9.00;5.28;;;;;;;;;;4974196;28;20039;-68
2023/04/29 06:32:05;;;;;;;9.90;5.85;;;;;;;;;;4963070;28;20535;-80
2023/04/29 06:34:31;;;;;;;9.70;6.28;;;;;;;;;;4947958;28;20054;-68
2023/04/29 06:36:56;;;;;;;7.82;4.85;;;;;;;;;;4975230;28;20040;-67
2023/04/29 06:39:21;;;;;;;10.50;5.47;;;;;;;;;;4965831;28;20079;-69
2023/04/29 06:41:47;;;;;;;11.05;6.05;;;;;;;;;;4978061;28;20066;-67
2023/04/29 06:44:12;;;;;;;13.73;6.22;;;;;;;;;;4975385;28;20042;-68
2023/04/29 06:46:38;;;;;;;10.60;6.63;;;;;;;;;;4962106;28;20041;-69
2023/04/29 06:49:03;;;;;;;9.77;5.82;;;;;;;;;;4959850;28;20060;-68
2023/04/29 06:51:30;;;;;;;11.05;6.68;;;;;;;;;;4972311;28;20115;-67
2023/04/29 06:53:56;;;;;;;11.68;6.50;;;;;;;;;;4976982;28;20097;-66
2023/04/29 06:56:22;;;;;;;9.63;5.60;;;;;;;;;;4977704;28;20474;-65
2023/04/29 06:58:48;;;;;;;9.07;5.88;;;;;;;;;;4972942;28;20053;-66
2023/04/29 07:01:13;;;;;;;12.63;6.68;;;;;;;;;;4952856;28;20045;-67
2023/04/29 07:03:38;;;;;;;40.92;24.60;;;;;;;;;;4950982;28;20477;-67
2023/04/29 07:06:05;;;;;;;9.60;6.20;;;;;;;;;;4974706;28;20073;-67
2023/04/29 07:08:30;;;;;;;15.10;10.02;;;;;;;;;;4969192;28;20038;-67
2023/04/29 07:10:57;;;;;;;10.95;6.63;;;;;;;;;;4975677;28;20057;-68
2023/04/29 07:13:22;;;;;;;11.43;6.70;;;;;;;;;;4973239;28;20130;-68
2023/04/29 07:15:48;;;;;;;8.90;5.47;;;;;;;;;;4953432;28;20613;-70
2023/04/29 07:18:13;;;;;;;8.60;5.28;;;;;;;;;;4974210;28;20033;-69
2023/04/29 07:20:38;;;;;;;12.40;5.55;;;;;;;;;;4978604;28;20046;-69
2023/04/29 07:23:04;;;;;;;10.30;6.53;;;;;;;;;;4977172;28;20426;-69
2023/04/29 07:25:29;;;;;;;11.90;5.93;;;;;;;;;;4956431;28;20201;-69
2023/04/29 07:27:55;;;;;;;8.70;5.13;;;;;;;;;;4973225;28;20037;-70
2023/04/29 07:30:22;;;;;;;10.98;6.97;;;;;;;;;;4943859;28;20066;-68
2023/04/29 07:32:49;;;;;;;10.70;6.20;;;;;;;;;;4973850;28;20042;-69
2023/04/29 07:35:15;;;;;;;9.88;6.13;;;;;;;;;;4973174;28;20519;-70
2023/04/29 07:37:42;;;;;;;10.32;5.53;;;;;;;;;;4976395;28;20117;-70
2023/04/29 07:40:08;;;;;;;8.35;5.35;;;;;;;;;;4978912;28;20149;-70
2023/04/29 07:42:33;;;;;;;8.88;5.90;;;;;;;;;;4967196;28;20514;-70
2023/04/29 07:44:59;;;;;;;8.95;6.53;;;;;;;;;;4960156;28;20047;-70
2023/04/29 07:47:24;;;;;;;11.93;7.38;;;;;;;;;;4970975;28;20053;-70
2023/04/29 07:49:50;;;;;;;8.30;5.68;;;;;;;;;;4972341;28;20059;-69
2023/04/29 07:52:16;;;;;;;9.13;6.30;;;;;;;;;;4976185;28;20076;-70
2023/04/29 07:54:41;;;;;;;8.45;5.78;;;;;;;;;;4971864;28;20092;-69
2023/04/29 07:57:06;;;;;;;10.55;6.57;;;;;;;;;;4948346;28;20065;-69
2023/04/29 07:59:32;;;;;;;9.38;6.72;;;;;;;;;;4977220;28;20395;-69
2023/04/29 08:01:57;;;;;;;8.95;6.35;;;;;;;;;;4970959;28;20050;-70
2023/04/29 08:04:23;;;;;;;9.95;7.75;;;;;;;;;;4955938;28;20072;-71
2023/04/29 08:06:48;;;;;;;14.75;7.30;;;;;;;;;;4969700;28;20590;-70
2023/04/29 08:09:15;;;;;;;10.65;7.68;;;;;;;;;;4967295;28;20034;-70
2023/04/29 08:11:40;;;;;;;10.60;6.57;;;;;;;;;;4948015;28;20049;-70
2023/04/29 08:14:06;;;;;;;11.57;8.32;;;;;;;;;;4972375;28;20042;-70
2023/04/29 08:16:31;;;;;;;10.68;7.10;;;;;;;;;;4976450;28;20039;-71
2023/04/29 08:18:56;;;;;;;9.82;7.07;;;;;;;;;;4975075;28;20038;-70
2023/04/29 08:21:22;;;;;;;11.55;7.63;;;;;;;;;;4977570;28;20553;-70
2023/04/29 08:23:47;;;;;;;14.20;7.00;;;;;;;;;;4978621;28;20038;-70
2023/04/29 08:26:13;;;;;;;11.07;7.50;;;;;;;;;;4950787;28;20037;-70
2023/04/29 08:28:39;;;;;;;14.45;9.15;;;;;;;;;;4967445;28;20404;-71
2023/04/29 08:31:06;;;;;;;9.82;6.90;;;;;;;;;;4951569;28;20597;-71
2023/04/29 08:33:34;;;;;;;13.20;8.15;;;;;;;;;;4975028;28;20470;-70
2023/04/29 08:36:02;;;;;;;13.10;8.30;;;;;;;;;;4974576;28;20034;-71
2023/04/29 08:38:28;;;;;;;11.10;7.65;;;;;;;;;;4961347;28;20690;-71
2023/04/29 08:40:53;;;;;;;12.13;8.00;;;;;;;;;;4966983;28;20030;-71
2023/04/29 08:43:20;;;;;;;10.18;7.40;;;;;;;;;;4972014;28;20550;-71
2023/04/29 08:45:47;;;;;;;12.25;8.52;;;;;;;;;;4976815;28;20741;-71
2023/04/29 08:48:15;;;;;;;13.40;8.10;;;;;;;;;;4972115;28;20034;-71
2023/04/29 08:50:41;;;;;;;13.73;9.25;;;;;;;;;;4970122;28;20068;-71
2023/04/29 08:53:08;;;;;;;12.85;8.88;;;;;;;;;;4948773;28;20129;-71
2023/04/29 08:55:44;;;;;;;15.25;9.88;;;;;;;;;;4970214;28;20030;-71
2023/04/29 08:58:10;;;;;;;15.07;9.85;;;;;;;;;;4970479;28;20112;-70
2023/04/29 09:00:36;;;;;;;15.82;9.93;;;;;;;;;;4973493;28;20038;-71
2023/04/29 09:03:16;;;;;;;16.15;10.02;;;;;;;;;;4969239;28;20086;-71
2023/04/29 09:05:44;;;;;;;16.23;10.43;;;;;;;;;;4948183;28;20094;-71
2023/04/29 09:08:11;;;;;;;16.35;10.18;;;;;;;;;;4973473;28;20527;-71
2023/04/29 09:10:38;;;;;;;14.90;9.43;;;;;;;;;;4966575;28;20137;-70
2023/04/29 09:13:04;;;;;;;17.73;11.38;;;;;;;;;;4964130;28;20114;-71
2023/04/29 09:15:35;;;;;;;15.00;9.65;;;;;;;;;;4965360;28;20137;-70
2023/04/29 09:18:00;;;;;;;14.82;10.43;;;;;;;;;;4952000;28;20719;-70
2023/04/29 09:20:26;;;;;;;13.27;8.65;;;;;;;;;;4970421;28;20069;-71
2023/04/29 09:23:00;;;;;;;13.30;8.68;;;;;;;;;;4951031;28;20034;-71
2023/04/29 09:25:26;;;;;;;14.13;9.90;;;;;;;;;;4962943;28;20407;-71
2023/04/29 09:27:53;;;;;;;14.88;10.10;;;;;;;;;;4973716;28;20035;-70
2023/04/29 09:30:19;;;;;;;15.45;10.10;;;;;;;;;;4966036;28;20072;-70
2023/04/29 09:32:46;;;;;;;15.48;9.25;;;;;;;;;;4964621;28;20113;-70
2023/04/29 09:35:25;;;;;;;17.25;9.88;;;;;;;;;;4965763;28;20502;-70
2023/04/29 09:38:07;;;;;;;15.52;9.85;;;;;;;;;;4958022;28;20111;-71
2023/04/29 09:40:33;;;;;;;16.00;10.07;;;;;;;;;;4954924;28;20534;-71
2023/04/29 09:42:59;;;;;;;15.20;10.18;;;;;;;;;;4928089;28;20066;-70
2023/04/29 09:45:40;;;;;;;17.90;10.98;;;;;;;;;;4955339;28;20703;-71
2023/04/29 09:48:08;;;;;;;16.75;10.95;;;;;;;;;;4957504;28;20043;-70
2023/04/29 09:50:38;;;;;;;14.68;9.93;;;;;;;;;;4949693;28;20141;-71
2023/04/29 09:53:06;;;;;;;15.63;10.25;;;;;;;;;;4951831;28;20043;-71
2023/04/29 09:55:31;;;;;;;17.92;11.27;;;;;;;;;;4950345;28;20523;-70
2023/04/29 09:57:57;;;;;;;16.83;10.93;;;;;;;;;;4967925;28;20046;-70
2023/04/29 10:00:24;;;;;;;18.50;11.85;;;;;;;;;;4968916;28;20051;-70
2023/04/29 10:02:51;;;;;;;17.63;11.02;;;;;;;;;;4971484;28;20670;-70
2023/04/29 10:05:17;;;;;;;18.75;11.98;;;;;;;;;;4954830;28;20043;-70
2023/04/29 10:07:46;;;;;;;16.73;11.45;;;;;;;;;;4948437;28;20050;-71
2023/04/29 10:10:12;;;;;;;18.08;11.55;;;;;;;;;;4919570;28;20179;-70
2023/04/29 10:12:39;;;;;;;16.80;11.50;;;;;;;;;;4960781;28;20030;-71
2023/04/29 10:15:11;;;;;;;18.58;12.77;;;;;;;;;;4961065;28;20045;-70
2023/04/29 10:17:48;;;;;;;17.27;12.55;;;;;;;;;;4955822;28;20038;-70
2023/04/29 10:20:20;;;;;;;33.60;21.25;;;;;;;;;;4955740;28;20814;-70
2023/04/29 10:22:50;;;;;;;25.45;17.73;;;;;;;;;;4930846;28;20046;-70
2023/04/29 10:25:17;;;;;;;17.08;11.68;;;;;;;;;;4946203;28;20046;-70
2023/04/29 10:27:44;;;;;;;16.08;10.73;;;;;;;;;;4945372;28;20039;-70
2023/04/29 10:30:12;;;;;;;20.85;12.48;;;;;;;;;;4958374;28;20535;-70
2023/04/29 10:32:40;;;;;;;18.50;11.43;;;;;;;;;;4965592;28;20049;-70
2023/04/29 10:35:11;;;;;;;16.33;11.25;;;;;;;;;;4937489;28;20034;-70
2023/04/29 10:37:37;;;;;;;16.27;11.48;;;;;;;;;;4962212;28;20043;-70
2023/04/29 10:40:16;;;;;;;17.88;11.05;;;;;;;;;;4950472;28;20038;-70
2023/04/29 10:42:47;;;;;;;16.38;11.32;;;;;;;;;;4971714;28;20038;-70
2023/04/29 10:45:34;;;;;;;15.73;10.77;;;;;;;;;;4974227;28;20042;-70
2023/04/29 10:48:07;;;;;;;14.52;11.20;;;;;;;;;;4927207;28;20282;-70
2023/04/29 10:50:56;;;;;;;15.55;10.95;;;;;;;;;;4942186;28;20042;-70
2023/04/29 10:53:21;;;;;;;14.48;10.48;;;;;;;;;;4961092;28;20042;-70
2023/04/29 10:55:52;;;;;;;12.30;9.40;;;;;;;;;;4951170;28;20031;-70
2023/04/29 10:58:36;;;;;;;15.00;9.97;;;;;;;;;;4946471;28;20057;-70
2023/04/29 11:01:02;;;;;;;13.68;10.10;;;;;;;;;;4961131;28;20818;-70
2023/04/29 11:03:45;;;;;;;16.35;9.55;;;;;;;;;;4956771;28;20042;-69
2023/04/29 11:06:11;;;;;;;11.35;8.38;;;;;;;;;;4961617;28;20070;-70
2023/04/29 11:08:38;;;;;;;12.10;9.00;;;;;;;;;;4945715;28;20451;-70
2023/04/29 11:11:05;;;;;;;13.68;9.50;;;;;;;;;;4962894;28;20043;-70
2023/04/29 11:13:33;;;;;;;12.32;8.75;;;;;;;;;;4961385;28;20129;-70
2023/04/29 11:16:07;;;;;;;12.48;8.85;;;;;;;;;;4972876;28;20060;-70
2023/04/29 11:18:34;;;;;;;10.13;7.45;;;;;;;;;;4969530;28;20038;-70
2023/04/29 11:21:05;;;;;;;10.50;7.30;;;;;;;;;;4947647;28;20192;-70
2023/04/29 11:23:37;;;;;;;10.27;7.57;;;;;;;;;;4955247;28;20531;-70
2023/04/29 11:26:03;;;;;;;10.85;8.13;;;;;;;;;;4959447;28;20049;-70
2023/04/29 11:28:32;;;;;;;10.23;8.15;;;;;;;;;;4971439;28;20042;-70
2023/04/29 11:30:58;;;;;;;10.40;8.00;;;;;;;;;;4962822;28;20051;-69
2023/04/29 11:33:28;;;;;;;11.68;8.35;;;;;;;;;;4949533;28;20046;-70
2023/04/29 11:35:54;;;;;;;9.13;7.38;;;;;;;;;;4948728;28;20589;-69
2023/04/29 11:38:26;;;;;;;9.98;7.03;;;;;;;;;;4948772;28;20050;-70
2023/04/29 11:40:53;;;;;;;8.43;6.60;;;;;;;;;;4949438;28;20031;-69
2023/04/29 11:43:19;;;;;;;9.07;6.80;;;;;;;;;;4948556;28;20039;-70
2023/04/29 11:45:45;;;;;;;8.07;6.63;;;;;;;;;;4946321;28;20141;-70
2023/04/29 11:48:24;;;;;;;10.63;7.47;;;;;;;;;;4951943;28;20066;-70
2023/04/29 11:50:53;;;;;;;10.70;7.80;;;;;;;;;;4962101;28;20034;-69
2023/04/29 11:53:19;;;;;;;10.57;7.55;;;;;;;;;;4967593;28;20070;-70
2023/04/29 11:55:46;;;;;;;11.02;6.65;;;;;;;;;;4954514;28;20062;-70
2023/04/29 11:58:13;;;;;;;9.07;6.88;;;;;;;;;;4927205;28;20038;-70
2023/04/29 12:00:39;;;;;;;8.25;6.60;;;;;;;;;;4955365;28;20045;-70
2023/04/29 12:03:22;;;;;;;8.13;5.93;;;;;;;;;;4979708;28;20104;-70
2023/04/29 12:05:50;;;;;;;7.80;6.22;;;;;;;;;;4955304;28;20050;-69
2023/04/29 12:08:23;;;;;;;7.18;5.50;;;;;;;;;;4953316;28;20104;-69
2023/04/29 12:10:49;;;;;;;9.30;6.22;;;;;;;;;;4933815;28;20515;-70
2023/04/29 12:13:18;;;;;;;9.32;6.47;;;;;;;;;;4968749;28;20117;-69
2023/04/29 12:15:45;;;;;;;8.90;6.22;;;;;;;;;;4971990;28;20041;-70
2023/04/29 12:18:11;;;;;;;7.32;6.07;;;;;;;;;;4970141;28;20125;-70
2023/04/29 12:20:38;;;;;;;8.98;6.78;;;;;;;;;;4953626;28;20122;-69
2023/04/29 12:23:30;;;;;;;9.10;6.55;;;;;;;;;;4952034;28;20118;-70
2023/04/29 12:25:58;;;;;;;8.70;6.47;;;;;;;;;;4959941;28;20049;-70
2023/04/29 12:28:24;;;;;;;9.10;5.93;;;;;;;;;;4966568;28;20555;-69
2023/04/29 12:30:53;;;;;;;6.60;5.35;;;;;;;;;;4975150;28;20078;-69
2023/04/29 12:33:26;;;;;;;8.73;6.38;;;;;;;;;;4969800;28;20467;-70
2023/04/29 12:35:54;;;;;;;7.95;5.97;;;;;;;;;;4952640;28;20053;-68
2023/04/29 12:38:25;;;;;;;8.02;5.82;;;;;;;;;;4959650;28;20043;-69
2023/04/29 12:40:51;;;;;;;8.35;6.15;;;;;;;;;;4968189;28;20041;-69
2023/04/29 12:43:17;;;;;;;11.55;5.85;;;;;;;;;;4972571;28;20054;-69
2023/04/29 12:45:43;;;;;;;8.77;6.43;;;;;;;;;;4967536;28;20093;-69
2023/04/29 12:48:10;;;;;;;11.65;6.88;;;;;;;;;;4958874;28;20034;-70
2023/04/29 12:50:37;;;;;;;10.63;7.10;;;;;;;;;;4967171;28;20037;-69
2023/04/29 12:53:06;;;;;;;10.43;6.65;;;;;;;;;;4963450;28;20038;-69
2023/04/29 12:55:36;;;;;;;11.20;6.20;;;;;;;;;;4971061;28;20097;-69
2023/04/29 12:58:03;;;;;;;8.75;6.45;;;;;;;;;;4955247;28;20035;-69
2023/04/29 13:00:28;;;;;;;8.80;6.30;;;;;;;;;;4957643;28;20065;-69
2023/04/29 13:02:54;;;;;;;7.93;6.25;;;;;;;;;;4967876;28;20064;-69
2023/04/29 13:05:19;;;;;;;8.65;6.72;;;;;;;;;;4971992;28;20057;-69
2023/04/29 13:07:44;;;;;;;7.70;5.60;;;;;;;;;;4968786;28;20068;-69
2023/04/29 13:10:11;;;;;;;9.18;5.88;;;;;;;;;;4978951;28;20038;-69
2023/04/29 13:12:37;;;;;;;8.18;5.72;;;;;;;;;;4969352;28;20447;-70
2023/04/29 13:15:04;;;;;;;7.55;5.90;;;;;;;;;;4957942;28;20030;-69
2023/04/29 13:17:29;;;;;;;8.75;5.28;;;;;;;;;;4945590;28;20050;-69
2023/04/29 13:19:54;;;;;;;7.43;5.93;;;;;;;;;;4975576;28;20557;-69
2023/04/29 13:22:20;;;;;;;7.13;5.57;;;;;;;;;;4966866;28;20034;-69
2023/04/29 13:24:46;;;;;;;9.23;6.22;;;;;;;;;;4966838;28;20499;-69
2023/04/29 13:27:11;;;;;;;7.78;5.32;;;;;;;;;;4950469;28;20039;-69
2023/04/29 13:29:37;;;;;;;9.80;5.63;;;;;;;;;;4964077;28;20121;-69
2023/04/29 13:32:02;;;;;;;10.55;6.40;;;;;;;;;;4954607;28;20200;-69
2023/04/29 13:34:28;;;;;;;8.85;6.03;;;;;;;;;;4967080;28;20038;-69
2023/04/29 13:36:53;;;;;;;7.50;6.53;;;;;;;;;;4970953;28;20034;-69
2023/04/29 13:39:21;;;;;;;8.13;6.38;;;;;;;;;;4967139;28;20157;-70
2023/04/29 13:41:46;;;;;;;7.82;5.57;;;;;;;;;;4971705;28;20124;-69
2023/04/29 13:44:11;;;;;;;7.63;5.72;;;;;;;;;;4956746;28;20161;-69
2023/04/29 13:46:37;;;;;;;6.93;5.45;;;;;;;;;;4957606;28;20046;-69
2023/04/29 13:49:02;;;;;;;8.38;5.32;;;;;;;;;;4968288;28;20038;-69
2023/04/29 13:51:28;;;;;;;9.82;5.65;;;;;;;;;;4965918;28;20031;-69
2023/04/29 13:53:53;;;;;;;7.75;5.60;;;;;;;;;;4965548;28;20601;-68
2023/04/29 13:56:19;;;;;;;7.55;5.40;;;;;;;;;;4963953;28;20042;-69
2023/04/29 13:58:46;;;;;;;6.80;5.30;;;;;;;;;;4958375;28;20041;-68
2023/04/29 14:01:11;;;;;;;7.03;5.18;;;;;;;;;;4963486;28;20209;-68
2023/04/29 14:03:37;;;;;;;7.70;5.80;;;;;;;;;;4969473;28;20570;-68
2023/04/29 14:06:02;;;;;;;7.53;5.57;;;;;;;;;;4968419;28;20045;-69
2023/04/29 14:08:27;;;;;;;8.70;5.32;;;;;;;;;;4968257;28;20031;-69
2023/04/29 14:10:53;;;;;;;8.52;5.80;;;;;;;;;;4960861;28;20109;-69
2023/04/29 14:13:18;;;;;;;7.93;5.10;;;;;;;;;;4951432;28;20053;-69
2023/04/29 14:15:43;;;;;;;7.43;4.68;;;;;;;;;;4970588;28;20125;-68
2023/04/29 14:18:10;;;;;;;8.18;5.55;;;;;;;;;;4965512;28;20038;-68
2023/04/29 14:20:35;;;;;;;8.48;5.80;;;;;;;;;;4969037;28;20042;-69
2023/04/29 14:23:01;;;;;;;6.60;5.20;;;;;;;;;;4966772;28;20041;-68
2023/04/29 14:25:26;;;;;;;8.13;5.72;;;;;;;;;;4962476;28;20042;-68
2023/04/29 14:27:52;;;;;;;7.32;5.43;;;;;;;;;;4955525;28;20640;-69
2023/04/29 14:30:17;;;;;;;6.60;4.82;;;;;;;;;;4968817;28;20045;-69
2023/04/29 14:32:42;;;;;;;8.73;5.25;;;;;;;;;;4968808;28;20069;-68
2023/04/29 14:35:08;;;;;;;8.63;5.28;;;;;;;;;;4969286;28;20117;-68